Time;durP1;ratioP1;P1;durP2;ratioP2;P2;SDS_P1;SDS_P2;PMS_P1;PMS_P2;Temp;Humidity;BMP_temperature;BMP_pressure;BME280_temperature;BME280_humidity;BME280_pressure;Samples;Min_cycle;Max_cycle;Signal;HPM_P1;HPM_P2
2022/04/30 00:00:18;;;;;;;17.65;10.38;;;4.30;99.90;;;;;;5009077;28;20124;-74
2022/04/30 00:02:44;;;;;;;14.13;9.88;;;4.20;99.90;;;;;;4993643;28;20053;-74
2022/04/30 00:05:17;;;;;;;16.23;10.27;;;4.20;99.90;;;;;;4994853;28;20052;-74
2022/04/30 00:07:46;;;;;;;16.13;10.10;;;4.10;99.90;;;;;;5012026;28;20049;-74
2022/04/30 00:10:14;;;;;;;14.02;9.45;;;4.10;99.90;;;;;;5021297;28;20483;-74
2022/04/30 00:12:40;;;;;;;21.55;11.68;;;4.00;99.90;;;;;;4999945;28;20073;-74
2022/04/30 00:15:06;;;;;;;14.70;9.70;;;4.00;99.90;;;;;;4993673;28;20396;-74
2022/04/30 00:17:32;;;;;;;14.40;10.13;;;4.00;99.90;;;;;;4992877;28;20129;-74
2022/04/30 00:19:58;;;;;;;14.98;9.88;;;3.90;99.90;;;;;;5010221;28;20504;-74
2022/04/30 00:22:24;;;;;;;14.90;9.82;;;3.80;99.90;;;;;;4991676;28;20041;-74
2022/04/30 00:24:55;;;;;;;15.35;9.90;;;3.80;99.90;;;;;;5005861;28;20041;-74
2022/04/30 00:27:20;;;;;;;17.40;10.93;;;3.70;99.90;;;;;;4993788;28;20531;-74
2022/04/30 00:29:46;;;;;;;19.40;10.75;;;3.60;99.90;;;;;;5010506;28;20046;-74
2022/04/30 00:32:13;;;;;;;15.38;9.80;;;3.60;99.90;;;;;;4988902;28;20049;-74
2022/04/30 00:34:38;;;;;;;15.55;10.18;;;3.60;99.90;;;;;;4991379;28;21390;-74
2022/04/30 00:37:04;;;;;;;16.35;9.52;;;3.50;99.90;;;;;;4993578;28;20048;-74
2022/04/30 00:39:34;;;;;;;18.08;10.52;;;3.50;99.90;;;;;;4993769;28;20057;-74
2022/04/30 00:42:00;;;;;;;15.25;10.00;;;3.50;99.90;;;;;;4993912;28;20041;-74
2022/04/30 00:44:27;;;;;;;17.58;9.57;;;3.40;99.90;;;;;;4993980;28;20599;-74
2022/04/30 00:46:56;;;;;;;16.77;10.30;;;3.30;99.90;;;;;;4989605;28;20087;-74
2022/04/30 00:49:22;;;;;;;15.27;10.05;;;3.30;99.90;;;;;;5008778;28;20046;-74
2022/04/30 00:51:50;;;;;;;15.90;10.55;;;3.20;99.90;;;;;;5009474;28;20042;-74
2022/04/30 00:54:19;;;;;;;16.45;10.15;;;3.20;99.90;;;;;;4994004;28;20037;-74
2022/04/30 00:56:51;;;;;;;17.70;10.32;;;3.10;99.90;;;;;;4993830;28;20148;-74
2022/04/30 00:59:18;;;;;;;13.47;9.77;;;3.10;99.90;;;;;;5015721;28;20395;-74
2022/04/30 01:01:48;;;;;;;15.38;9.80;;;3.00;99.90;;;;;;4993090;28;20300;-74
2022/04/30 01:04:16;;;;;;;18.13;9.82;;;3.00;99.90;;;;;;4992958;28;20034;-74
2022/04/30 01:06:48;;;;;;;18.75;10.52;;;2.90;99.90;;;;;;4993618;28;20041;-74
2022/04/30 01:09:14;;;;;;;14.75;9.85;;;2.90;99.90;;;;;;4993498;28;20041;-74
2022/04/30 01:11:41;;;;;;;14.13;9.93;;;2.80;99.90;;;;;;4986929;28;20519;-74
2022/04/30 01:14:10;;;;;;;18.95;10.85;;;2.80;99.90;;;;;;4999165;28;20035;-74
2022/04/30 01:16:36;;;;;;;18.40;10.05;;;2.80;99.90;;;;;;4993319;28;20405;-74
2022/04/30 01:19:02;;;;;;;18.05;10.32;;;2.70;99.90;;;;;;4989408;28;20034;-74
2022/04/30 01:21:30;;;;;;;15.85;10.43;;;2.60;99.90;;;;;;5034197;28;20037;-74
2022/04/30 01:23:58;;;;;;;17.70;10.00;;;2.60;99.90;;;;;;5005691;28;20407;-74
2022/04/30 01:26:27;;;;;;;15.90;10.07;;;2.60;99.90;;;;;;5016756;28;20034;-74
2022/04/30 01:28:53;;;;;;;15.35;9.75;;;2.50;99.90;;;;;;5011504;28;20038;-74
2022/04/30 01:39:34;;;;;;;14.18;8.93;;;2.40;99.90;;;;;;5012939;28;20054;-74
2022/04/30 01:42:11;;;;;;;12.52;9.38;;;2.30;99.90;;;;;;5012841;28;20088;-74
2022/04/30 01:44:39;;;;;;;14.15;9.25;;;2.20;99.90;;;;;;5011138;28;20121;-74
2022/04/30 01:47:06;;;;;;;14.50;9.07;;;2.30;99.90;;;;;;4995315;28;20145;-74
2022/04/30 01:49:32;;;;;;;13.00;8.68;;;2.20;99.90;;;;;;4994994;28;20038;-74
2022/04/30 01:51:57;;;;;;;17.40;9.93;;;2.10;99.90;;;;;;4996874;28;20046;-74
2022/04/30 01:54:32;;;;;;;13.18;9.00;;;2.10;99.90;;;;;;5012809;28;20521;-74
2022/04/30 01:56:58;;;;;;;12.80;9.15;;;2.00;99.90;;;;;;5012721;28;20477;-74
2022/04/30 01:59:28;;;;;;;16.02;10.10;;;2.00;99.90;;;;;;4989312;28;20381;-74
2022/04/30 02:01:55;;;;;;;16.88;10.57;;;1.90;99.90;;;;;;5021211;28;20063;-74
2022/04/30 02:04:22;;;;;;;17.35;10.20;;;1.90;99.90;;;;;;5028584;28;20054;-74
2022/04/30 02:06:48;;;;;;;17.77;9.63;;;1.90;99.90;;;;;;5015966;28;20048;-74
2022/04/30 02:09:15;;;;;;;15.73;11.00;;;1.90;99.90;;;;;;5016053;28;20042;-74
2022/04/30 02:11:44;;;;;;;16.60;10.88;;;1.80;99.90;;;;;;5017882;28;20473;-74
2022/04/30 02:14:13;;;;;;;21.05;10.50;;;1.80;99.90;;;;;;4994593;28;20030;-74
2022/04/30 02:16:40;;;;;;;18.92;10.68;;;1.80;99.90;;;;;;4994355;28;20053;-74
2022/04/30 02:19:08;;;;;;;15.55;10.00;;;1.80;99.90;;;;;;5006093;28;20038;-74
2022/04/30 02:21:34;;;;;;;13.75;8.88;;;1.70;99.90;;;;;;5012420;28;20096;-74
2022/04/30 02:24:01;;;;;;;14.98;8.77;;;1.70;99.90;;;;;;4996456;28;20100;-74
2022/04/30 02:26:28;;;;;;;14.95;10.63;;;1.70;99.90;;;;;;4995347;28;20492;-74
2022/04/30 02:28:58;;;;;;;13.80;9.82;;;1.70;99.90;;;;;;4994476;28;20042;-74
2022/04/30 02:31:25;;;;;;;14.40;8.77;;;1.70;99.90;;;;;;5012179;28;20049;-74
2022/04/30 02:33:55;;;;;;;13.50;9.50;;;1.70;99.90;;;;;;5012487;28;20041;-74
2022/04/30 02:36:26;;;;;;;13.93;8.68;;;1.70;99.90;;;;;;4996188;28;20064;-74
2022/04/30 02:38:55;;;;;;;16.08;9.60;;;1.70;99.90;;;;;;4994995;28;20144;-74
2022/04/30 02:41:22;;;;;;;14.30;9.68;;;1.60;99.90;;;;;;5011917;28;20049;-74
2022/04/30 02:43:52;;;;;;;12.88;9.55;;;1.60;99.90;;;;;;5013247;28;20591;-74
2022/04/30 02:46:20;;;;;;;12.90;9.15;;;1.60;99.90;;;;;;5012071;28;20096;-74
2022/04/30 02:48:49;;;;;;;13.00;9.50;;;1.60;99.90;;;;;;4994942;28;20045;-74
2022/04/30 02:51:15;;;;;;;16.67;10.75;;;1.60;99.90;;;;;;4994551;28;20301;-74
2022/04/30 02:53:44;;;;;;;17.05;10.65;;;1.50;99.90;;;;;;5003102;28;20061;-74
2022/04/30 02:56:10;;;;;;;17.77;10.73;;;1.60;99.90;;;;;;4991456;28;20042;-74
2022/04/30 03:01:21;;;;;;;17.73;10.85;;;1.50;99.90;;;;;;5012107;28;20049;-74
2022/04/30 03:03:47;;;;;;;19.08;12.05;;;1.50;99.90;;;;;;5009601;28;20046;-74
2022/04/30 03:06:14;;;;;;;20.75;12.07;;;1.60;99.90;;;;;;4994298;28;20030;-74
2022/04/30 03:08:40;;;;;;;21.58;13.07;;;1.60;99.90;;;;;;5002195;28;20054;-74
2022/04/30 03:11:12;;;;;;;22.20;13.07;;;1.60;99.90;;;;;;4995537;28;20037;-74
2022/04/30 03:13:38;;;;;;;19.23;12.80;;;1.60;99.90;;;;;;4995754;28;20129;-74
2022/04/30 03:21:42;;;;;;;22.10;11.75;;;1.60;99.90;;;;;;5012523;28;20037;-74
2022/04/30 03:24:09;;;;;;;22.73;13.18;;;1.60;99.90;;;;;;4994507;28;20053;-74
2022/04/30 03:26:34;;;;;;;29.90;12.98;;;1.60;99.90;;;;;;4995002;28;20042;-74
2022/04/30 03:29:03;;;;;;;22.92;13.32;;;1.70;99.90;;;;;;4994955;28;20046;-74
2022/04/30 03:31:30;;;;;;;25.27;12.65;;;1.80;99.90;;;;;;4992916;28;20444;-74
2022/04/30 03:33:56;;;;;;;26.17;13.07;;;1.80;99.90;;;;;;5010030;28;20150;-74
2022/04/30 03:36:22;;;;;;;55.65;15.10;;;1.90;99.90;;;;;;4992907;28;20146;-74
2022/04/30 03:38:48;;;;;;;20.00;14.18;;;1.90;99.90;;;;;;4993797;28;20087;-74
2022/04/30 03:41:15;;;;;;;25.80;13.98;;;1.90;99.90;;;;;;4994822;28;20045;-74
2022/04/30 03:43:41;;;;;;;22.90;13.10;;;1.90;99.90;;;;;;5012078;28;20139;-74
2022/04/30 03:46:10;;;;;;;23.80;13.80;;;1.90;99.90;;;;;;4996468;28;20069;-74
2022/04/30 03:48:36;;;;;;;24.98;13.65;;;1.90;99.90;;;;;;4992970;28;20152;-74
2022/04/30 03:51:02;;;;;;;20.20;12.98;;;2.00;99.90;;;;;;4993515;28;20508;-74
2022/04/30 03:53:27;;;;;;;27.08;15.20;;;2.00;99.90;;;;;;4990705;28;20217;-74
2022/04/30 03:55:53;;;;;;;27.50;15.05;;;2.00;99.90;;;;;;4994767;28;20049;-74
2022/04/30 03:58:19;;;;;;;24.35;14.32;;;2.00;99.90;;;;;;5000224;28;20037;-74
2022/04/30 04:00:48;;;;;;;25.08;14.77;;;2.10;99.90;;;;;;4994449;28;20473;-74
2022/04/30 04:03:14;;;;;;;30.38;15.85;;;2.10;99.90;;;;;;4994562;28;20041;-74
2022/04/30 04:05:40;;;;;;;23.45;13.88;;;2.20;99.90;;;;;;4993282;28;20108;-74
2022/04/30 04:08:11;;;;;;;24.52;13.63;;;2.20;99.90;;;;;;4994047;28;20038;-74
2022/04/30 04:10:38;;;;;;;24.08;13.85;;;2.30;99.90;;;;;;4995730;28;20041;-74
2022/04/30 04:18:34;;;;;;;22.77;13.82;;;2.30;99.90;;;;;;5002072;28;20132;-74
2022/04/30 04:21:00;;;;;;;25.08;14.25;;;2.40;99.90;;;;;;5008196;28;20041;-74
2022/04/30 04:23:26;;;;;;;23.00;13.50;;;2.40;99.90;;;;;;5026085;28;20042;-74
2022/04/30 04:25:59;;;;;;;23.83;13.18;;;2.50;99.90;;;;;;5007369;28;20038;-74
2022/04/30 04:28:25;;;;;;;24.33;12.88;;;2.50;99.90;;;;;;4974523;28;20129;-74
2022/04/30 04:30:50;;;;;;;21.17;12.55;;;2.60;99.90;;;;;;4990804;28;20073;-74
2022/04/30 04:33:18;;;;;;;22.23;13.80;;;2.60;99.90;;;;;;4990219;28;20080;-74
2022/04/30 04:35:44;;;;;;;21.50;12.82;;;2.70;99.90;;;;;;4991669;28;20106;-74
2022/04/30 04:38:10;;;;;;;22.92;13.82;;;2.70;99.90;;;;;;4999608;28;20152;-74
2022/04/30 04:40:36;;;;;;;23.17;13.85;;;2.80;99.90;;;;;;5013605;28;20041;-74
2022/04/30 04:43:01;;;;;;;22.85;13.23;;;2.90;99.90;;;;;;5029799;28;20095;-74
2022/04/30 04:45:29;;;;;;;26.88;13.93;;;2.90;99.90;;;;;;5018513;28;20121;-74
2022/04/30 04:47:56;;;;;;;27.08;14.63;;;3.00;99.90;;;;;;5009703;28;20300;-74
2022/04/30 04:50:25;;;;;;;28.23;14.30;;;3.10;99.90;;;;;;5010437;28;20045;-74
2022/04/30 04:52:53;;;;;;;28.80;14.68;;;3.20;99.90;;;;;;4993033;28;20538;-74
2022/04/30 04:55:19;;;;;;;30.85;14.45;;;3.30;99.90;;;;;;4988976;28;20045;-74
2022/04/30 04:57:45;;;;;;;29.50;14.68;;;3.40;99.90;;;;;;5001502;28;20353;-74
2022/04/30 05:00:11;;;;;;;22.88;13.98;;;3.50;99.90;;;;;;4996388;28;20091;-74
2022/04/30 05:02:37;;;;;;;22.17;14.00;;;3.60;99.90;;;;;;4997570;28;20042;-74
2022/04/30 05:05:03;;;;;;;24.83;13.65;;;3.70;99.90;;;;;;4997983;28;20211;-74
2022/04/30 05:07:29;;;;;;;25.10;15.07;;;3.80;99.90;;;;;;5004924;28;20479;-74
2022/04/30 05:09:55;;;;;;;24.83;14.23;;;3.90;99.90;;;;;;5005791;28;20116;-74
2022/04/30 05:12:20;;;;;;;24.83;14.73;;;4.00;99.90;;;;;;5008650;28;20041;-74
2022/04/30 05:14:48;;;;;;;26.40;15.32;;;4.20;99.90;;;;;;5012972;28;20408;-74
2022/04/30 05:17:14;;;;;;;24.88;15.52;;;4.20;99.90;;;;;;4996979;28;20393;-75
2022/04/30 05:19:40;;;;;;;27.30;16.25;;;4.40;99.90;;;;;;4997301;28;20045;-75
2022/04/30 05:22:06;;;;;;;25.42;16.35;;;4.50;99.90;;;;;;5004340;28;20546;-74
2022/04/30 05:24:32;;;;;;;28.95;17.63;;;4.70;99.90;;;;;;5020535;28;20535;-74
2022/04/30 05:27:01;;;;;;;30.50;17.08;;;4.80;99.90;;;;;;5014265;28;20050;-74
2022/04/30 05:29:29;;;;;;;26.48;17.52;;;5.00;99.90;;;;;;4996696;28;20393;-74
2022/04/30 05:31:55;;;;;;;26.05;16.48;;;5.10;99.90;;;;;;4997104;28;20084;-74
2022/04/30 05:34:21;;;;;;;25.23;15.60;;;5.20;99.90;;;;;;5013858;28;20056;-74
2022/04/30 05:36:47;;;;;;;22.17;15.75;;;5.30;99.90;;;;;;4992892;28;20049;-74
2022/04/30 05:39:12;;;;;;;25.83;15.82;;;5.50;99.90;;;;;;5008169;28;20096;-74
2022/04/30 05:41:40;;;;;;;21.88;15.45;;;5.60;99.90;;;;;;5016734;28;20033;-74
2022/04/30 05:44:06;;;;;;;19.52;14.70;;;5.60;99.90;;;;;;5017263;28;20439;-74
2022/04/30 05:46:31;;;;;;;23.27;14.88;;;5.70;99.90;;;;;;5011929;28;20054;-75
2022/04/30 05:48:57;;;;;;;25.25;16.50;;;5.90;99.90;;;;;;5012612;28;20413;-74
2022/04/30 05:51:26;;;;;;;23.45;14.43;;;5.90;99.90;;;;;;4991663;28;20153;-75
2022/04/30 05:53:58;;;;;;;21.17;15.52;;;6.10;99.90;;;;;;4987333;28;20077;-75
2022/04/30 05:56:24;;;;;;;28.90;16.27;;;6.20;99.90;;;;;;4996600;28;20525;-74
2022/04/30 05:59:02;;;;;;;27.30;18.67;;;6.40;99.90;;;;;;4996554;28;20078;-76
2022/04/30 06:01:33;;;;;;;25.20;19.25;;;6.60;99.90;;;;;;5001130;28;20049;-76
2022/04/30 06:04:02;;;;;;;24.70;18.98;;;6.80;99.90;;;;;;5042006;28;20086;-75
2022/04/30 06:06:28;;;;;;;25.17;19.30;;;7.00;99.90;;;;;;4996012;28;20050;-75
2022/04/30 06:08:54;;;;;;;22.20;16.85;;;7.20;99.90;;;;;;4994031;28;20042;-75
2022/04/30 06:11:22;;;;;;;21.75;16.08;;;7.30;99.90;;;;;;4990898;28;20030;-75
2022/04/30 06:13:51;;;;;;;19.17;14.73;;;7.50;99.90;;;;;;4993153;28;20038;-75
2022/04/30 06:16:22;;;;;;;20.00;15.57;;;7.50;99.90;;;;;;4984573;28;20044;-75
2022/04/30 06:18:53;;;;;;;18.15;13.63;;;7.60;99.90;;;;;;5012090;28;20049;-75
2022/04/30 06:21:23;;;;;;;20.77;13.35;;;7.70;99.90;;;;;;4996429;28;20108;-75
2022/04/30 06:23:48;;;;;;;17.60;12.38;;;7.80;99.90;;;;;;4996707;28;20048;-75
2022/04/30 06:26:17;;;;;;;15.63;12.52;;;7.90;99.90;;;;;;4995301;28;20046;-75
2022/04/30 06:28:56;;;;;;;16.38;13.20;;;8.00;99.90;;;;;;5012488;28;20037;-75
2022/04/30 06:31:27;;;;;;;19.58;12.40;;;8.00;99.90;;;;;;4991732;28;20043;-75
2022/04/30 06:33:58;;;;;;;17.27;12.38;;;8.20;99.90;;;;;;5004435;28;20120;-75
2022/04/30 06:36:24;;;;;;;20.45;13.25;;;8.20;99.90;;;;;;4989983;28;20048;-75
2022/04/30 06:38:53;;;;;;;17.30;12.60;;;8.30;99.90;;;;;;5002966;28;20497;-75
2022/04/30 06:41:25;;;;;;;13.65;11.82;;;8.40;99.90;;;;;;4995331;28;20046;-75
2022/04/30 06:43:54;;;;;;;15.10;11.70;;;8.50;99.90;;;;;;5006320;28;20404;-75
2022/04/30 06:46:22;;;;;;;14.90;11.57;;;8.50;99.90;;;;;;5001764;28;20370;-75
2022/04/30 06:49:04;;;;;;;12.38;11.07;;;8.60;99.90;;;;;;4995313;28;20399;-75
2022/04/30 06:51:38;;;;;;;14.35;11.30;;;8.70;99.90;;;;;;5003075;28;20501;-76
2022/04/30 06:57:11;;;;;;;14.20;10.98;;;9.10;99.90;;;;;;5004354;28;20081;-76
2022/04/30 06:59:46;;;;;;;14.77;10.65;;;9.10;99.90;;;;;;5003234;28;20057;-75
2022/04/30 07:02:22;;;;;;;14.55;11.07;;;9.10;99.90;;;;;;5009882;28;20052;-75
2022/04/30 07:05:12;;;;;;;12.93;8.82;;;9.20;99.90;;;;;;5028618;28;20060;-76
2022/04/30 07:07:40;;;;;;;15.38;9.32;;;9.20;99.90;;;;;;5019590;28;20057;-77
2022/04/30 07:10:12;;;;;;;11.50;8.50;;;9.20;99.90;;;;;;5008479;28;20044;-76
2022/04/30 07:12:55;;;;;;;11.82;8.95;;;9.20;99.90;;;;;;4991166;28;20042;-75
2022/04/30 07:15:49;;;;;;;13.05;9.25;;;9.40;99.90;;;;;;5021168;28;20042;-74
2022/04/30 07:19:10;;;;;;;14.35;9.45;;;9.30;99.90;;;;;;4951179;29;20126;-73
2022/04/30 07:26:16;;;;;;;;;;;;;;;;;;;;;
2022/04/30 07:35:55;;;;;;;11.20;7.40;;;10.80;99.90;;;;;;5017262;28;20092;-74
2022/04/30 07:38:26;;;;;;;12.95;7.85;;;11.00;99.90;;;;;;5025716;28;20045;-74
2022/04/30 07:41:18;;;;;;;11.32;7.55;;;11.00;99.90;;;;;;5032918;28;20045;-73
2022/04/30 07:43:57;;;;;;;11.23;7.22;;;11.00;99.90;;;;;;5012005;28;20445;-73
2022/04/30 07:46:38;;;;;;;10.02;7.50;;;11.00;99.90;;;;;;5007445;28;20500;-73
2022/04/30 07:49:44;;;;;;;12.00;7.93;;;11.10;99.90;;;;;;5023559;28;20049;-73
2022/04/30 07:52:35;;;;;;;10.48;7.85;;;10.90;99.90;;;;;;5011215;28;20392;-73
2022/04/30 07:55:12;;;;;;;9.57;7.78;;;10.80;99.90;;;;;;5031097;28;20068;-74
2022/04/30 07:57:41;;;;;;;12.55;8.15;;;10.80;99.90;;;;;;5012980;28;20049;-75
2022/04/30 08:00:12;;;;;;;11.30;7.78;;;10.70;99.90;;;;;;5000497;28;20033;-74
2022/04/30 08:02:48;;;;;;;8.35;7.22;;;10.60;99.90;;;;;;5011688;28;20519;-74
2022/04/30 08:05:14;;;;;;;9.35;7.30;;;10.60;99.90;;;;;;5002730;28;20123;-74
2022/04/30 08:07:44;;;;;;;11.32;7.70;;;10.60;99.90;;;;;;5004791;28;20065;-73
2022/04/30 08:10:12;;;;;;;12.20;7.28;;;10.60;99.90;;;;;;5005675;28;20049;-75
2022/04/30 08:12:38;;;;;;;9.45;7.50;;;10.60;99.90;;;;;;5010381;28;20033;-74
2022/04/30 08:15:05;;;;;;;9.43;6.65;;;10.80;99.90;;;;;;5013115;28;20148;-74
2022/04/30 08:17:38;;;;;;;12.50;7.25;;;10.70;99.90;;;;;;5030144;28;20049;-74
2022/04/30 08:20:06;;;;;;;8.43;6.65;;;10.70;99.90;;;;;;5014006;28;20049;-74
2022/04/30 08:22:37;;;;;;;9.60;7.10;;;10.80;99.90;;;;;;4997874;28;20041;-74
2022/04/30 08:25:14;;;;;;;9.02;6.03;;;10.90;99.90;;;;;;5030549;28;20041;-74
2022/04/30 08:27:43;;;;;;;7.70;5.90;;;11.10;99.90;;;;;;5011841;28;20068;-74
2022/04/30 08:30:15;;;;;;;9.52;5.78;;;11.30;99.90;;;;;;5010293;28;20078;-74
2022/04/30 08:32:52;;;;;;;8.63;5.40;;;12.00;99.90;;;;;;4993755;28;20049;-74
2022/04/30 08:35:30;;;;;;;10.18;5.90;;;12.80;99.90;;;;;;4994419;28;20042;-74
2022/04/30 08:38:09;;;;;;;7.68;6.00;;;14.10;99.90;;;;;;4994155;28;20046;-75
2022/04/30 08:40:49;;;;;;;10.85;6.00;;;15.40;99.90;;;;;;5028192;28;20408;-75
2022/04/30 08:43:40;;;;;;;10.20;5.82;;;16.40;99.90;;;;;;5014701;28;20405;-75
2022/04/30 08:46:20;;;;;;;7.75;6.00;;;17.10;99.90;;;;;;4995083;28;20077;-75
2022/04/30 08:48:50;;;;;;;10.02;6.03;;;18.10;99.90;;;;;;4993856;28;20060;-75
2022/04/30 08:51:16;;;;;;;8.75;6.00;;;18.70;99.90;;;;;;4994409;28;20038;-75
2022/04/30 08:53:58;;;;;;;8.38;5.32;;;18.60;99.90;;;;;;5008844;28;20080;-74
2022/04/30 08:56:29;;;;;;;8.13;5.70;;;18.40;99.90;;;;;;5029482;28;20550;-74
2022/04/30 08:59:08;;;;;;;8.77;6.45;;;18.20;99.90;;;;;;5013599;28;20052;-75
2022/04/30 09:01:58;;;;;;;7.75;5.45;;;17.90;99.90;;;;;;5013815;28;20496;-75
2022/04/30 09:04:49;;;;;;;6.00;5.30;;;17.50;98.70;;;;;;5014089;28;20045;-74
2022/04/30 09:07:34;;;;;;;8.07;5.40;;;16.80;93.20;;;;;;5013169;28;20040;-74
2022/04/30 09:10:02;;;;;;;7.50;5.72;;;15.90;98.20;;;;;;5010629;28;20107;-74
2022/04/30 09:12:29;;;;;;;8.57;5.80;;;15.50;99.90;;;;;;5010070;28;20488;-74
2022/04/30 09:14:55;;;;;;;7.53;5.82;;;15.20;94.80;;;;;;5014585;28;20037;-74
2022/04/30 09:17:24;;;;;;;7.68;5.75;;;14.80;99.90;;;;;;4998082;28;20517;-74
2022/04/30 09:20:04;;;;;;;7.85;5.78;;;14.70;99.90;;;;;;4993446;28;20057;-74
2022/04/30 09:22:34;;;;;;;8.73;5.88;;;14.60;99.90;;;;;;5028983;28;20058;-74
2022/04/30 09:25:17;;;;;;;6.68;5.88;;;14.40;99.90;;;;;;5013484;28;20481;-74
2022/04/30 09:27:52;;;;;;;8.90;5.78;;;14.30;99.90;;;;;;5013527;28;20128;-74
2022/04/30 09:30:26;;;;;;;8.48;6.32;;;14.20;99.80;;;;;;5013456;28;20053;-74
2022/04/30 09:33:00;;;;;;;6.78;5.78;;;14.00;99.90;;;;;;5013616;28;20121;-74
2022/04/30 09:38:39;;;;;;;6.72;5.53;;;13.90;99.90;;;;;;5010108;28;20104;-74
2022/04/30 09:41:08;;;;;;;6.75;5.30;;;13.90;99.90;;;;;;5010066;28;20038;-74
2022/04/30 09:43:34;;;;;;;8.30;5.60;;;14.10;99.90;;;;;;5009949;28;20069;-74
2022/04/30 09:46:08;;;;;;;9.02;5.95;;;14.40;99.90;;;;;;5012356;28;20073;-74
2022/04/30 09:54:13;;;;;;;8.07;6.40;;;15.10;99.90;;;;;;5033576;28;20042;-74
2022/04/30 09:56:55;;;;;;;8.23;6.57;;;15.10;99.90;;;;;;5017210;28;20081;-74
2022/04/30 09:59:28;;;;;;;7.80;6.30;;;15.30;99.90;;;;;;5032784;28;20049;-74
2022/04/30 10:01:59;;;;;;;8.27;6.13;;;15.30;99.90;;;;;;5007443;28;20050;-74
2022/04/30 10:04:28;;;;;;;12.43;6.35;;;15.40;99.90;;;;;;5004575;28;20448;-74
2022/04/30 10:07:02;;;;;;;8.05;5.93;;;15.40;99.90;;;;;;5016964;28;20042;-74
2022/04/30 10:09:35;;;;;;;6.37;4.90;;;15.40;99.90;;;;;;5016543;28;20085;-74
2022/04/30 10:12:26;;;;;;;6.50;4.95;;;15.40;99.90;;;;;;5033490;28;20037;-74
2022/04/30 10:15:16;;;;;;;9.93;5.80;;;15.40;99.90;;;;;;5017002;28;20045;-74
2022/04/30 10:17:46;;;;;;;8.45;7.63;;;15.20;99.90;;;;;;5028928;28;20053;-74
2022/04/30 10:20:35;;;;;;;8.65;7.40;;;15.00;99.90;;;;;;5025341;28;20069;-74
2022/04/30 10:23:10;;;;;;;9.07;8.02;;;14.70;99.90;;;;;;4997014;28;20042;-74
2022/04/30 10:25:46;;;;;;;9.55;7.43;;;14.40;99.90;;;;;;5018936;28;20519;-73
2022/04/30 10:28:23;;;;;;;7.60;6.78;;;14.10;99.90;;;;;;5026974;28;20443;-74
2022/04/30 10:31:06;;;;;;;11.07;7.35;;;13.90;99.90;;;;;;5023549;28;20037;-74
2022/04/30 10:33:49;;;;;;;11.65;7.47;;;13.60;99.90;;;;;;5007616;28;20034;-73
2022/04/30 10:36:33;;;;;;;10.50;7.32;;;13.30;99.90;;;;;;5006687;28;20571;-73
2022/04/30 10:39:22;;;;;;;10.10;7.70;;;13.00;99.90;;;;;;5025286;28;20049;-74
2022/04/30 10:41:57;;;;;;;9.70;7.25;;;12.70;99.90;;;;;;5015547;28;20079;-75
2022/04/30 10:45:09;;;;;;;8.68;7.78;;;12.60;99.90;;;;;;5020643;28;20510;-74
2022/04/30 10:48:07;;;;;;;9.88;7.10;;;12.50;99.90;;;;;;5023644;28;20049;-75
2022/04/30 10:51:29;;;;;;;8.23;6.60;;;12.40;99.90;;;;;;5006698;28;20041;-75
2022/04/30 10:54:54;;;;;;;8.65;6.85;;;12.40;99.90;;;;;;4992521;28;20069;-75
2022/04/30 10:57:45;;;;;;;9.48;6.60;;;12.30;99.90;;;;;;5010608;28;20069;-75
2022/04/30 11:00:44;;;;;;;10.15;7.78;;;12.40;99.90;;;;;;5002138;28;20120;-75
2022/04/30 11:03:50;;;;;;;10.95;7.97;;;12.40;99.90;;;;;;5002567;28;20139;-75
2022/04/30 11:06:37;;;;;;;11.57;7.82;;;12.50;99.90;;;;;;5034264;28;20492;-75
2022/04/30 11:09:50;;;;;;;9.95;7.70;;;12.60;99.90;;;;;;5010370;28;20045;-75
2022/04/30 11:12:34;;;;;;;8.43;7.60;;;12.70;99.90;;;;;;5018646;28;20084;-75
2022/04/30 11:15:51;;;;;;;8.32;5.97;;;12.80;99.90;;;;;;5010966;28;20049;-76
2022/04/30 11:18:28;;;;;;;9.50;6.40;;;12.80;99.90;;;;;;5022214;28;20117;-74
2022/04/30 11:21:12;;;;;;;8.95;6.57;;;12.60;99.90;;;;;;5010345;28;20117;-74
2022/04/30 11:23:41;;;;;;;10.23;6.43;;;12.70;99.90;;;;;;5005591;28;20494;-74
2022/04/30 11:26:18;;;;;;;7.10;6.38;;;12.80;99.90;;;;;;5008528;28;20041;-75
2022/04/30 11:29:00;;;;;;;7.72;6.93;;;12.90;99.90;;;;;;5006513;28;20372;-74
2022/04/30 11:31:28;;;;;;;10.73;7.15;;;13.00;99.90;;;;;;5046652;28;20045;-74
2022/04/30 11:34:16;;;;;;;11.05;7.13;;;13.20;99.90;;;;;;5044489;28;20120;-75
2022/04/30 11:37:03;;;;;;;9.25;6.90;;;13.30;99.90;;;;;;5006801;28;20124;-75
2022/04/30 11:39:29;;;;;;;9.55;7.32;;;13.40;99.90;;;;;;5010714;28;20045;-75
2022/04/30 11:41:56;;;;;;;9.85;7.20;;;13.50;99.90;;;;;;5013239;28;20048;-74
2022/04/30 11:44:30;;;;;;;7.03;6.30;;;13.40;99.90;;;;;;5023217;28;20038;-75
2022/04/30 11:47:24;;;;;;;;;;;13.30;99.90;;;;;;5014855;28;20033;-74
2022/04/30 11:50:07;;;;;;;8.90;6.65;;;13.30;99.90;;;;;;5001254;28;19929;-75
2022/04/30 11:52:37;;;;;;;8.65;6.18;;;13.20;99.90;;;;;;5012911;28;20045;-75
2022/04/30 11:55:15;;;;;;;7.85;7.13;;;13.20;99.90;;;;;;5004017;28;20041;-74
2022/04/30 11:57:47;;;;;;;9.23;6.40;;;13.10;99.90;;;;;;5012646;28;20052;-74
2022/04/30 12:00:25;;;;;;;10.98;6.90;;;13.10;99.90;;;;;;5021893;28;20049;-74
2022/04/30 12:03:03;;;;;;;8.63;5.72;;;13.10;99.90;;;;;;5009752;28;20041;-74
2022/04/30 12:05:42;;;;;;;9.63;5.95;;;13.10;99.90;;;;;;5005846;28;20041;-74
2022/04/30 12:08:14;;;;;;;7.80;5.97;;;12.90;99.90;;;;;;5025895;28;20098;-74
2022/04/30 12:11:02;;;;;;;8.25;6.72;;;12.80;99.90;;;;;;5028251;28;20041;-74
2022/04/30 12:13:42;;;;;;;7.50;6.22;;;12.80;99.90;;;;;;5029308;28;20051;-75
2022/04/30 12:16:19;;;;;;;8.35;6.00;;;12.90;99.90;;;;;;5010213;28;20114;-75
2022/04/30 12:25:12;;;;;;;7.82;5.72;;;12.90;98.90;;;;;;5030478;28;20041;-75
2022/04/30 12:27:37;;;;;;;9.52;5.55;;;12.90;99.70;;;;;;5045969;28;20091;-75
2022/04/30 12:30:31;;;;;;;10.32;6.85;;;13.00;98.90;;;;;;5007176;28;20054;-75
2022/04/30 12:33:29;;;;;;;7.43;5.47;;;13.00;99.90;;;;;;5024539;28;20089;-75
2022/04/30 12:36:29;;;;;;;8.65;5.68;;;13.10;97.00;;;;;;5018413;28;20181;-75
2022/04/30 12:39:23;;;;;;;10.15;5.90;;;13.20;97.10;;;;;;5024649;28;20029;-75
2022/04/30 12:42:13;;;;;;;;;;;;;;;;;;;;;
2022/04/30 12:45:05;;;;;;;7.50;5.65;;;13.30;95.10;;;;;;5029561;28;20045;-76
2022/04/30 12:53:47;;;;;;;8.50;5.90;;;13.60;99.30;;;;;;5017841;28;20291;-75
2022/04/30 12:56:39;;;;;;;9.02;6.20;;;14.00;97.90;;;;;;5036263;28;20034;-76
2022/04/30 12:59:20;;;;;;;7.85;6.10;;;14.30;95.60;;;;;;5039667;28;20041;-75
2022/04/30 13:02:04;;;;;;;6.90;6.13;;;14.30;92.70;;;;;;5029896;28;20049;-75
2022/04/30 13:04:50;;;;;;;9.93;6.45;;;14.20;93.60;;;;;;5011048;28;20037;-75
2022/04/30 13:07:37;;;;;;;;;;;;;;;;;;;;;
2022/04/30 13:16:07;;;;;;;9.10;6.53;;;14.40;94.50;;;;;;5015877;28;20045;-75
2022/04/30 13:18:37;;;;;;;7.68;6.07;;;14.50;95.50;;;;;;5004657;28;20037;-75
2022/04/30 13:21:13;;;;;;;5.90;4.90;;;14.60;95.20;;;;;;5001036;28;20497;-75
2022/04/30 13:23:47;;;;;;;8.02;5.53;;;14.90;96.90;;;;;;5014626;28;20420;-75
2022/04/30 13:26:22;;;;;;;8.32;5.45;;;15.20;95.30;;;;;;5027973;28;20045;-75
2022/04/30 13:29:08;;;;;;;6.43;4.30;;;15.20;93.50;;;;;;5014496;28;20037;-75
2022/04/30 13:32:03;;;;;;;5.55;4.78;;;15.40;93.70;;;;;;5006299;28;20044;-75
2022/04/30 13:34:53;;;;;;;6.28;4.15;;;15.50;93.10;;;;;;5021948;28;20045;-74
2022/04/30 13:37:32;;;;;;;4.50;3.90;;;15.80;93.50;;;;;;5027043;28;20048;-76
2022/04/30 13:40:11;;;;;;;6.18;4.35;;;16.10;91.90;;;;;;5009738;28;20045;-76
2022/04/30 13:43:09;;;;;;;5.57;4.75;;;16.20;91.40;;;;;;5016475;28;20050;-76
2022/04/30 13:45:38;;;;;;;7.45;4.75;;;16.30;91.10;;;;;;5008539;28;20045;-77
2022/04/30 13:48:15;;;;;;;5.82;4.50;;;16.50;91.10;;;;;;5015939;28;20056;-76
2022/04/30 13:50:47;;;;;;;5.75;4.35;;;16.50;90.30;;;;;;5008486;28;20432;-76
2022/04/30 13:53:16;;;;;;;5.70;5.10;;;16.40;87.50;;;;;;5017091;28;20404;-76
2022/04/30 13:55:57;;;;;;;5.82;4.75;;;16.40;87.70;;;;;;5016540;28;20331;-76
2022/04/30 13:58:34;;;;;;;5.43;4.45;;;16.30;87.70;;;;;;5032522;28;20420;-76
2022/04/30 14:01:18;;;;;;;7.38;4.45;;;16.50;87.20;;;;;;5022904;28;20115;-76
2022/04/30 14:03:49;;;;;;;;;;;16.50;84.20;;;;;;5008505;28;20052;-76
2022/04/30 14:06:24;;;;;;;7.80;4.47;;;16.40;80.50;;;;;;5008746;28;20300;-77
2022/04/30 14:09:18;;;;;;;5.80;5.20;;;16.40;87.70;;;;;;5016196;28;20044;-77
2022/04/30 14:11:49;;;;;;;6.85;4.85;;;16.50;86.00;;;;;;5034284;22;20529;-76
2022/04/30 14:20:11;;;;;;;7.95;5.50;;;16.40;84.70;;;;;;5032261;28;20518;-76
2022/04/30 14:23:14;;;;;;;7.53;5.03;;;16.40;86.70;;;;;;5079463;22;20075;-77
2022/04/30 14:25:46;;;;;;;6.82;5.15;;;16.30;86.80;;;;;;5076605;28;20040;-77
2022/04/30 14:28:32;;;;;;;6.32;5.40;;;16.30;87.00;;;;;;5073361;28;20102;-77